createdAt,value
2017-08-19T00:01:12.993Z,85.47
2017-08-19T00:03:40.612Z,85.49
2017-08-19T00:06:08.209Z,85.86
2017-08-19T00:08:35.912Z,85.45
2017-08-19T00:11:03.529Z,85.91
2017-08-19T00:13:31.141Z,86.09
2017-08-19T00:15:58.817Z,84.80
2017-08-19T00:18:26.436Z,84.94
2017-08-19T00:20:54.055Z,85.99
2017-08-19T00:23:21.731Z,86.24
2017-08-19T00:25:49.338Z,86.16
2017-08-19T00:28:17.044Z,86.27
2017-08-19T00:30:44.697Z,85.63
2017-08-19T00:33:12.290Z,85.73
2017-08-19T00:35:40.101Z,85.33
2017-08-19T00:38:07.765Z,85.75
2017-08-19T00:40:35.370Z,86.09
2017-08-19T00:43:02.977Z,85.98
2017-08-19T00:45:30.638Z,85.34
2017-08-19T00:47:58.249Z,85.99
2017-08-19T00:50:25.869Z,85.46
2017-08-19T00:52:53.528Z,85.61
2017-08-19T00:55:21.127Z,85.88
2017-08-19T00:57:48.726Z,85.96
2017-08-19T01:00:16.397Z,85.99
2017-08-19T01:02:44.210Z,86.09
2017-08-19T01:05:11.960Z,86.39
2017-08-19T01:07:39.842Z,86.79
2017-08-19T01:10:07.563Z,86.83
2017-08-19T01:12:35.525Z,86.58
2017-08-19T01:15:03.171Z,86.51
2017-08-19T01:17:31.013Z,86.45
2017-08-19T01:19:58.833Z,85.93
2017-08-19T01:22:26.489Z,85.93
2017-08-19T01:24:54.146Z,85.94
2017-08-19T01:27:21.766Z,85.88
2017-08-19T01:29:49.421Z,85.69
2017-08-19T01:32:17.018Z,85.52
2017-08-19T01:34:44.634Z,84.71
2017-08-19T01:37:12.291Z,84.36
2017-08-19T01:39:39.889Z,83.72
2017-08-19T01:42:07.482Z,84.02
2017-08-19T01:44:35.164Z,85.10
2017-08-19T01:47:02.795Z,85.11
2017-08-19T01:49:30.416Z,84.75
2017-08-19T01:51:58.093Z,85.53
2017-08-19T01:54:25.717Z,85.62
2017-08-19T01:56:53.333Z,85.64
2017-08-19T01:59:21.024Z,85.51
2017-08-19T02:01:48.638Z,85.76
2017-08-19T02:04:16.255Z,86.16
2017-08-19T02:06:43.940Z,86.47
2017-08-19T02:09:11.567Z,85.80
2017-08-19T02:11:39.170Z,86.19
2017-08-19T02:14:06.853Z,86.65
2017-08-19T02:16:34.469Z,86.66
2017-08-19T02:19:02.079Z,86.91
2017-08-19T02:21:29.764Z,87.24
2017-08-19T02:23:57.378Z,87.05
2017-08-19T02:26:24.990Z,86.76
2017-08-19T02:28:52.653Z,86.96
2017-08-19T02:31:20.248Z,87.00
2017-08-19T02:33:47.880Z,87.29
2017-08-19T02:36:15.553Z,87.43
2017-08-19T02:38:43.187Z,87.59
2017-08-19T02:41:10.816Z,86.51
2017-08-19T02:43:38.500Z,84.45
2017-08-19T02:46:06.114Z,83.52
2017-08-19T02:48:33.715Z,83.14
2017-08-19T02:51:01.396Z,83.04
2017-08-19T02:53:29.019Z,84.23
2017-08-19T02:55:56.648Z,84.75
2017-08-19T02:58:24.331Z,85.24
2017-08-19T03:00:51.938Z,85.00
2017-08-19T03:03:19.540Z,84.85
2017-08-19T03:05:47.236Z,84.23
2017-08-19T03:08:14.850Z,84.70
2017-08-19T03:10:42.449Z,84.87
2017-08-19T03:13:10.135Z,85.70
2017-08-19T03:15:37.750Z,85.35
2017-08-19T03:18:05.361Z,85.65
2017-08-19T03:20:33.017Z,85.61
2017-08-19T03:23:00.631Z,85.44
2017-08-19T03:25:28.256Z,85.01
2017-08-19T03:27:55.931Z,84.91
2017-08-19T03:30:23.564Z,85.16
2017-08-19T03:32:51.192Z,85.25
2017-08-19T03:35:18.871Z,85.40
2017-08-19T03:37:46.504Z,85.10
2017-08-19T03:40:14.188Z,84.75
2017-08-19T03:42:41.867Z,84.26
2017-08-19T03:45:09.491Z,83.92
2017-08-19T03:47:37.120Z,83.79
2017-08-19T03:50:04.820Z,84.01
2017-08-19T03:52:32.430Z,83.25
2017-08-19T03:55:00.059Z,83.14
2017-08-19T03:57:27.724Z,80.71
2017-08-19T03:59:55.344Z,78.86
2017-08-19T04:02:22.973Z,75.59
2017-08-19T04:04:50.632Z,73.43
2017-08-19T04:07:18.256Z,70.31
2017-08-19T04:09:45.875Z,68.71
2017-08-19T04:12:13.536Z,66.10
2017-08-19T04:14:41.149Z,61.71
2017-08-19T04:17:08.757Z,60.89
2017-08-19T04:19:36.426Z,58.21
2017-08-19T04:22:04.033Z,56.10
2017-08-19T04:24:31.659Z,54.36
2017-08-19T04:26:59.330Z,53.61
2017-08-19T04:29:27.892Z,52.73
2017-08-19T04:31:55.516Z,50.98
2017-08-19T04:34:23.205Z,50.32
2017-08-19T04:36:50.851Z,49.19
2017-08-19T04:39:18.483Z,48.16
2017-08-19T04:41:46.159Z,45.75
2017-08-19T04:44:13.776Z,44.88
2017-08-19T04:46:41.397Z,44.46
2017-08-19T04:49:09.083Z,44.17
2017-08-19T04:51:36.712Z,44.05
2017-08-19T04:54:04.328Z,43.77
2017-08-19T04:56:31.982Z,41.80
2017-08-19T04:58:59.619Z,41.04
2017-08-19T05:01:27.235Z,37.41
2017-08-19T05:03:54.896Z,39.35
2017-08-19T05:06:22.513Z,38.70
2017-08-19T05:08:50.129Z,40.63
2017-08-19T05:11:17.791Z,40.03
2017-08-19T05:13:45.415Z,37.71
2017-08-19T05:16:13.044Z,37.53
2017-08-19T05:18:40.710Z,37.11
2017-08-19T05:21:08.332Z,35.88
2017-08-19T05:23:35.963Z,37.19
2017-08-19T05:26:03.647Z,36.95
2017-08-19T05:28:31.417Z,37.40
2017-08-19T05:30:59.055Z,35.42
2017-08-19T05:33:26.727Z,34.42
2017-08-19T05:35:54.346Z,34.14
2017-08-19T05:38:22.005Z,34.00
2017-08-19T05:40:49.661Z,33.75
2017-08-19T05:43:17.295Z,32.72
2017-08-19T05:45:44.904Z,31.55
2017-08-19T05:48:12.588Z,30.21
2017-08-19T05:50:40.197Z,29.02
2017-08-19T05:53:07.802Z,28.91
2017-08-19T05:55:35.478Z,28.35
2017-08-19T05:58:03.111Z,29.67
2017-08-19T06:00:30.726Z,29.63
2017-08-19T06:02:58.376Z,29.73
2017-08-19T06:05:25.974Z,28.25
2017-08-19T06:07:53.585Z,27.90
2017-08-19T06:10:21.277Z,28.57
2017-08-19T06:12:48.878Z,27.76
2017-08-19T06:15:16.495Z,26.64
2017-08-19T06:17:44.188Z,25.44
2017-08-19T06:20:11.797Z,26.17
2017-08-19T06:22:39.419Z,26.47
2017-08-19T06:25:07.121Z,26.25
2017-08-19T06:27:34.742Z,24.04
2017-08-19T06:30:02.353Z,25.39
2017-08-19T06:32:30.010Z,26.21
2017-08-19T06:34:57.668Z,26.05
2017-08-19T06:37:25.282Z,23.85
2017-08-19T06:39:52.951Z,22.17
2017-08-19T06:42:20.570Z,22.74
2017-08-19T06:44:48.434Z,24.05
2017-08-19T06:47:16.116Z,24.75
2017-08-19T06:49:43.725Z,24.40
2017-08-19T06:52:11.339Z,24.49
2017-08-19T06:54:39.003Z,22.59
2017-08-19T06:57:06.612Z,23.38
2017-08-19T06:59:34.221Z,23.75
2017-08-19T07:02:01.900Z,22.25
2017-08-19T07:04:29.544Z,22.63
2017-08-19T07:06:57.178Z,23.77
2017-08-19T07:09:24.856Z,23.71
2017-08-19T07:11:52.483Z,24.15
2017-08-19T07:14:20.100Z,23.51
2017-08-19T07:16:47.783Z,24.29
2017-08-19T07:19:15.418Z,23.47
2017-08-19T07:21:43.036Z,24.12
2017-08-19T07:24:10.710Z,24.67
2017-08-19T07:26:38.329Z,23.58
2017-08-19T07:29:05.931Z,23.52
2017-08-19T07:31:33.612Z,23.64
2017-08-19T07:34:01.236Z,24.05
2017-08-19T07:36:28.862Z,25.02
2017-08-19T07:38:56.543Z,22.58
2017-08-19T07:41:24.166Z,23.45
2017-08-19T07:43:51.752Z,22.01
2017-08-19T07:46:19.406Z,22.92
2017-08-19T07:48:47.035Z,21.48
2017-08-19T07:51:14.629Z,21.08
2017-08-19T07:53:42.298Z,20.43
2017-08-19T07:56:09.925Z,20.13
2017-08-19T07:58:37.539Z,19.35
2017-08-19T08:01:05.220Z,21.36
2017-08-19T08:03:32.848Z,20.07
2017-08-19T08:06:00.493Z,19.37
2017-08-19T08:08:28.156Z,20.95
2017-08-19T08:10:55.763Z,19.83
2017-08-19T08:13:23.367Z,20.74
2017-08-19T08:15:51.036Z,19.63
2017-08-19T08:18:18.638Z,18.87
2017-08-19T08:20:46.264Z,21.57
2017-08-19T08:23:13.921Z,21.52
2017-08-19T08:25:41.513Z,20.68
2017-08-19T08:28:09.119Z,21.45
2017-08-19T08:30:36.770Z,18.23
2017-08-19T08:33:04.348Z,20.04
2017-08-19T08:35:31.959Z,16.61
2017-08-19T08:37:59.613Z,17.34
2017-08-19T08:40:27.212Z,19.96
2017-08-19T08:42:54.806Z,16.70
2017-08-19T08:45:22.476Z,17.90
2017-08-19T08:47:50.399Z,19.64
2017-08-19T08:50:17.984Z,18.96
2017-08-19T08:52:45.648Z,17.06
2017-08-19T08:55:13.264Z,16.33
2017-08-19T08:57:40.865Z,19.70
2017-08-19T09:00:08.552Z,19.49
2017-08-19T09:02:36.154Z,16.80
2017-08-19T09:05:03.763Z,18.32
2017-08-19T09:07:31.421Z,16.15
2017-08-19T09:09:59.036Z,19.10
2017-08-19T09:12:26.638Z,20.45
2017-08-19T09:14:54.279Z,17.43
2017-08-19T09:17:21.877Z,18.55
2017-08-19T09:19:49.487Z,17.39
2017-08-19T09:22:17.159Z,15.33
2017-08-19T09:24:44.773Z,15.12
2017-08-19T09:27:12.392Z,15.63
2017-08-19T09:29:40.055Z,15.16
2017-08-19T09:32:07.683Z,14.75
2017-08-19T09:34:35.299Z,15.19
2017-08-19T09:37:02.956Z,17.13
2017-08-19T09:39:30.539Z,17.69
2017-08-19T09:41:58.163Z,17.28
2017-08-19T09:44:25.832Z,17.87
2017-08-19T09:46:53.416Z,16.67
2017-08-19T09:49:21.075Z,15.72
2017-08-19T09:51:48.729Z,13.74
2017-08-19T09:54:16.331Z,15.64
2017-08-19T09:56:43.935Z,18.61
2017-08-19T09:59:12.499Z,16.18
2017-08-19T10:01:40.111Z,15.43
2017-08-19T10:04:07.722Z,15.78
2017-08-19T10:06:35.354Z,17.10
2017-08-19T10:12:13.745Z,15.32
2017-08-19T10:14:41.364Z,16.05
2017-08-19T10:17:08.965Z,13.93
2017-08-19T10:19:36.637Z,14.04
2017-08-19T10:22:04.218Z,16.28
2017-08-19T10:24:32.565Z,14.70
2017-08-19T10:27:00.201Z,14.95
2017-08-19T10:29:27.804Z,14.41
2017-08-19T10:31:55.410Z,15.20
2017-08-19T10:34:23.062Z,14.37
2017-08-19T10:36:50.674Z,14.41
2017-08-19T10:39:18.259Z,13.39
2017-08-19T10:41:46.290Z,13.65
2017-08-19T10:44:14.155Z,13.64
2017-08-19T10:46:41.741Z,14.69
2017-08-19T10:49:09.635Z,12.87
2017-08-19T10:51:37.372Z,13.33
2017-08-19T10:54:05.194Z,13.74
2017-08-19T10:56:32.957Z,14.58
2017-08-19T10:59:00.733Z,15.43
2017-08-19T11:01:28.386Z,14.73
2017-08-19T11:03:56.246Z,14.76
2017-08-19T11:06:23.919Z,14.73
2017-08-19T11:08:51.599Z,14.97
2017-08-19T11:11:19.230Z,16.16
2017-08-19T11:13:46.801Z,14.83
2017-08-19T11:16:14.787Z,14.81
2017-08-19T11:18:42.694Z,14.45
2017-08-19T11:21:10.286Z,14.67
2017-08-19T11:23:37.876Z,14.36
2017-08-19T11:26:05.535Z,13.40
2017-08-19T11:28:33.141Z,14.12
2017-08-19T11:31:00.716Z,14.62
2017-08-19T11:33:28.406Z,15.29
2017-08-19T11:35:55.984Z,15.54
2017-08-19T11:38:23.585Z,13.17
2017-08-19T11:40:51.251Z,12.93
2017-08-19T11:43:18.841Z,13.54
2017-08-19T11:45:46.452Z,13.61
2017-08-19T11:48:14.101Z,14.14
2017-08-19T11:50:41.693Z,13.58
2017-08-19T11:53:09.310Z,15.45
2017-08-19T11:55:36.975Z,14.35
2017-08-19T11:58:04.572Z,15.50
2017-08-19T12:00:32.183Z,16.09
2017-08-19T12:02:59.840Z,14.27
2017-08-19T12:05:27.446Z,13.62
2017-08-19T12:07:55.054Z,13.96
2017-08-19T12:10:22.710Z,14.00
2017-08-19T12:12:50.316Z,13.53
2017-08-19T12:15:17.911Z,14.11
2017-08-19T12:17:45.570Z,14.41
2017-08-19T12:20:13.179Z,15.62
2017-08-19T12:22:40.761Z,17.46
2017-08-19T12:25:08.442Z,19.81
2017-08-19T12:27:36.027Z,18.58
2017-08-19T12:30:03.692Z,19.49
2017-08-19T12:32:31.334Z,17.11
2017-08-19T12:34:58.933Z,15.98
2017-08-19T12:37:26.528Z,15.91
2017-08-19T12:39:54.177Z,16.65
2017-08-19T12:42:21.795Z,17.14
2017-08-19T12:44:49.388Z,17.63
2017-08-19T12:47:17.024Z,16.42
2017-08-19T12:49:44.628Z,15.97
2017-08-19T12:52:12.232Z,16.67
2017-08-19T12:54:40.198Z,16.15
2017-08-19T12:57:08.174Z,17.50
2017-08-19T12:59:36.190Z,16.28
2017-08-19T13:02:04.047Z,17.08
2017-08-19T13:04:31.773Z,16.64
2017-08-19T13:06:59.588Z,17.25
2017-08-19T13:09:27.606Z,18.25
2017-08-19T13:11:55.700Z,18.99
2017-08-19T13:14:23.388Z,19.23
2017-08-19T13:16:51.458Z,19.66
2017-08-19T13:19:19.120Z,19.91
2017-08-19T13:21:46.781Z,19.18
2017-08-19T13:24:14.715Z,19.08
2017-08-19T13:26:42.287Z,19.76
2017-08-19T13:29:09.978Z,19.83
2017-08-19T13:31:37.841Z,18.51
2017-08-19T13:34:05.437Z,21.00
2017-08-19T13:36:33.041Z,20.52
2017-08-19T13:39:00.720Z,19.98
2017-08-19T13:41:29.274Z,19.71
2017-08-19T13:43:56.873Z,19.30
2017-08-19T13:46:24.542Z,19.97
2017-08-19T13:48:52.156Z,19.98
2017-08-19T13:51:19.785Z,19.50
2017-08-19T13:53:47.417Z,19.39
2017-08-19T13:56:15.025Z,20.89
2017-08-19T13:58:42.626Z,19.98
2017-08-19T14:01:10.277Z,20.58
2017-08-19T14:03:37.874Z,20.58
2017-08-19T14:06:05.460Z,19.61
2017-08-19T14:08:33.114Z,20.07
2017-08-19T14:11:00.710Z,19.88
2017-08-19T14:13:28.330Z,20.29
2017-08-19T14:15:56.001Z,19.67
2017-08-19T14:18:23.596Z,20.19
2017-08-19T14:20:51.214Z,19.70
2017-08-19T14:23:18.875Z,19.48
2017-08-19T14:25:46.470Z,19.34
2017-08-19T14:28:14.104Z,20.00
2017-08-19T14:30:41.773Z,20.12
2017-08-19T14:33:09.397Z,19.28
2017-08-19T14:35:37.204Z,19.89
2017-08-19T14:38:05.037Z,19.74
2017-08-19T14:40:32.643Z,20.00
2017-08-19T14:43:00.280Z,19.94
2017-08-19T14:45:27.924Z,20.13
2017-08-19T14:47:55.543Z,20.27
2017-08-19T14:50:23.219Z,20.41
2017-08-19T14:52:50.873Z,21.08
2017-08-19T14:55:18.472Z,21.45
2017-08-19T14:57:46.109Z,21.62
2017-08-19T15:00:13.765Z,22.62
2017-08-19T15:02:41.389Z,23.50
2017-08-19T15:05:08.996Z,23.45
2017-08-19T15:07:36.667Z,23.36
2017-08-19T15:10:04.254Z,23.24
2017-08-19T15:12:31.858Z,23.53
2017-08-19T15:14:59.529Z,23.05
2017-08-19T15:17:27.126Z,23.23
2017-08-19T15:19:54.760Z,23.91
2017-08-19T15:22:22.423Z,23.60
2017-08-19T15:24:50.038Z,22.98
2017-08-19T15:27:18.507Z,22.83
2017-08-19T15:29:46.170Z,23.73
2017-08-19T15:32:13.765Z,23.09
2017-08-19T15:34:41.375Z,24.84
2017-08-19T15:37:09.946Z,25.14
2017-08-19T15:39:37.552Z,25.29
2017-08-19T15:42:05.159Z,25.65
2017-08-19T15:44:32.823Z,25.59
2017-08-19T15:47:00.497Z,26.39
2017-08-19T15:49:28.127Z,26.72
2017-08-19T15:51:55.777Z,26.79
2017-08-19T15:54:23.391Z,27.03
2017-08-19T15:56:50.986Z,27.92
2017-08-19T15:59:18.706Z,27.47
2017-08-19T16:01:46.325Z,27.69
2017-08-19T16:04:13.928Z,28.18
2017-08-19T16:06:41.591Z,28.50
2017-08-19T16:09:09.215Z,29.29
2017-08-19T16:11:36.844Z,29.49
2017-08-19T16:14:04.532Z,29.77
2017-08-19T16:16:32.171Z,30.49
2017-08-19T16:18:59.781Z,31.34
2017-08-19T16:21:27.469Z,31.57
2017-08-19T16:23:55.074Z,32.25
2017-08-19T16:26:22.670Z,33.02
2017-08-19T16:28:50.332Z,33.96
2017-08-19T16:31:17.926Z,36.60
2017-08-19T16:33:45.535Z,38.14
2017-08-19T16:36:13.202Z,38.62
2017-08-19T16:38:40.883Z,39.14
2017-08-19T16:41:08.593Z,39.00
2017-08-19T16:43:36.257Z,38.76
2017-08-19T16:46:03.943Z,39.21
2017-08-19T16:48:31.540Z,39.58
2017-08-19T16:50:59.402Z,40.14
2017-08-19T16:53:26.984Z,40.99
2017-08-19T16:55:54.592Z,41.21
2017-08-19T16:58:22.250Z,41.49
2017-08-19T17:00:49.871Z,41.50
2017-08-19T17:03:17.500Z,42.17
2017-08-19T17:05:45.159Z,42.88
2017-08-19T17:08:12.751Z,45.36
2017-08-19T17:10:40.363Z,45.08
2017-08-19T17:13:08.088Z,44.52
2017-08-19T17:15:35.683Z,43.90
2017-08-19T17:18:03.278Z,45.04
2017-08-19T17:20:30.936Z,43.32
2017-08-19T17:22:58.535Z,43.27
2017-08-19T17:25:26.142Z,43.75
2017-08-19T17:27:53.791Z,44.86
2017-08-19T17:30:21.590Z,44.17
2017-08-19T17:32:49.200Z,44.77
2017-08-19T17:35:16.836Z,45.62
2017-08-19T17:37:44.421Z,46.11
2017-08-19T17:40:12.015Z,45.74
2017-08-19T17:42:39.688Z,47.58
2017-08-19T17:45:07.308Z,48.59
2017-08-19T17:47:34.917Z,49.80
2017-08-19T17:50:02.586Z,49.93
2017-08-19T17:52:30.212Z,50.80
2017-08-19T17:54:57.809Z,49.08
2017-08-19T17:57:25.493Z,48.91
2017-08-19T17:59:53.089Z,49.28
2017-08-19T18:02:20.709Z,48.77
2017-08-19T18:04:48.368Z,48.68
2017-08-19T18:07:15.964Z,49.50
2017-08-19T18:09:43.557Z,51.06
2017-08-19T18:12:11.219Z,50.60
2017-08-19T18:14:38.816Z,51.79
2017-08-19T18:17:06.408Z,53.59
2017-08-19T18:19:34.075Z,52.62
2017-08-19T18:22:01.679Z,53.81
2017-08-19T18:24:29.304Z,53.97
2017-08-19T18:26:56.939Z,54.84
2017-08-19T18:29:24.560Z,56.50
2017-08-19T18:31:52.145Z,59.71
2017-08-19T18:34:19.791Z,59.96
2017-08-19T18:36:47.386Z,60.96
2017-08-19T18:39:14.994Z,60.73
2017-08-19T18:41:42.661Z,62.55
2017-08-19T18:44:10.287Z,63.87
2017-08-19T18:46:37.889Z,63.10
2017-08-19T18:49:05.559Z,63.13
2017-08-19T18:51:33.165Z,65.94
2017-08-19T18:54:00.775Z,65.53
2017-08-19T18:56:28.430Z,67.27
2017-08-19T18:58:56.044Z,66.00
2017-08-19T19:01:23.646Z,68.46
2017-08-19T19:03:51.374Z,68.85
2017-08-19T19:06:18.961Z,69.57
2017-08-19T19:08:46.546Z,69.57
2017-08-19T19:11:14.234Z,70.34
2017-08-19T19:13:41.959Z,71.91
2017-08-19T19:16:09.625Z,71.92
2017-08-19T19:18:37.418Z,70.98
2017-08-19T19:21:05.108Z,68.65
2017-08-19T19:23:32.717Z,68.41
2017-08-19T19:26:00.365Z,67.18
2017-08-19T19:28:27.973Z,67.18
2017-08-19T19:30:55.601Z,68.12
2017-08-19T19:33:23.309Z,69.14
2017-08-19T19:35:51.069Z,68.13
2017-08-19T19:38:18.681Z,67.75
2017-08-19T19:40:46.335Z,66.73
2017-08-19T19:43:13.942Z,68.77
2017-08-19T19:45:41.584Z,69.28
2017-08-19T19:48:09.251Z,69.38
2017-08-19T19:50:36.878Z,70.15
2017-08-19T19:53:04.505Z,69.05
2017-08-19T19:55:32.151Z,70.71
2017-08-19T19:57:59.752Z,70.63
2017-08-19T20:00:27.367Z,69.55
2017-08-19T20:02:55.026Z,68.94
2017-08-19T20:05:22.703Z,68.88
2017-08-19T20:07:50.313Z,68.28
2017-08-19T20:10:17.985Z,66.19
2017-08-19T20:12:45.604Z,67.98
2017-08-19T20:15:13.241Z,67.84
2017-08-19T20:17:40.935Z,68.72
2017-08-19T20:20:08.535Z,69.83
2017-08-19T20:22:36.145Z,69.80
2017-08-19T20:25:03.826Z,68.66
2017-08-19T20:27:31.509Z,69.75
2017-08-19T20:29:59.188Z,66.89
2017-08-19T20:32:26.849Z,66.18
2017-08-19T20:34:54.449Z,66.69
2017-08-19T20:37:22.078Z,66.88
2017-08-19T20:39:49.744Z,67.27
2017-08-19T20:42:19.327Z,67.70
2017-08-19T20:44:49.582Z,68.08
2017-08-19T20:47:17.380Z,68.68
2017-08-19T20:49:45.016Z,67.15
2017-08-19T20:52:12.623Z,68.44
2017-08-19T20:54:40.339Z,67.09
2017-08-19T20:57:07.961Z,67.30
2017-08-19T20:59:35.585Z,66.67
2017-08-19T21:02:03.276Z,66.27
2017-08-19T21:04:30.880Z,67.26
2017-08-19T21:06:58.738Z,67.90
2017-08-19T21:09:26.420Z,66.07
2017-08-19T21:11:54.079Z,66.77
2017-08-19T21:14:21.716Z,70.58
2017-08-19T21:16:49.392Z,67.64
2017-08-19T21:19:17.007Z,68.50
2017-08-19T21:21:44.682Z,68.58
2017-08-19T21:24:12.348Z,72.38
2017-08-19T21:26:39.978Z,71.60
2017-08-19T21:29:07.599Z,73.16
2017-08-19T21:31:35.281Z,75.13
2017-08-19T21:34:02.910Z,74.71
2017-08-19T21:36:30.504Z,74.78
2017-08-19T21:38:58.180Z,74.75
2017-08-19T21:41:25.812Z,74.51
2017-08-19T21:43:53.431Z,74.62
2017-08-19T21:46:21.151Z,74.33
2017-08-19T21:48:50.003Z,75.03
2017-08-19T21:51:17.719Z,73.97
2017-08-19T21:53:45.398Z,74.89
2017-08-19T21:56:13.061Z,75.20
2017-08-19T21:58:40.721Z,74.98
2017-08-19T22:01:08.423Z,75.75
2017-08-19T22:03:36.048Z,75.56
2017-08-19T22:06:03.661Z,75.86
2017-08-19T22:08:31.372Z,75.39
2017-08-19T22:10:58.970Z,76.00
2017-08-19T22:13:26.596Z,75.79
2017-08-19T22:15:54.296Z,75.31
2017-08-19T22:18:21.903Z,75.27
2017-08-19T22:20:49.535Z,75.77
2017-08-19T22:23:17.211Z,75.91
2017-08-19T22:25:44.822Z,75.67
2017-08-19T22:28:12.432Z,76.07
2017-08-19T22:30:40.100Z,75.52
2017-08-19T22:33:07.700Z,75.50
2017-08-19T22:35:35.317Z,76.16
2017-08-19T22:38:02.990Z,76.34
2017-08-19T22:40:30.607Z,75.83
2017-08-19T22:42:58.219Z,76.44
2017-08-19T22:45:25.887Z,76.65
2017-08-19T22:47:53.501Z,76.19
2017-08-19T22:50:21.121Z,75.19
2017-08-19T22:52:48.786Z,75.30
2017-08-19T22:55:16.411Z,76.29
2017-08-19T22:57:44.039Z,76.99
2017-08-19T23:00:11.800Z,78.07
2017-08-19T23:02:39.402Z,78.57
2017-08-19T23:05:07.083Z,77.80
2017-08-19T23:07:34.768Z,78.15
2017-08-19T23:10:02.393Z,77.97
2017-08-19T23:12:30.008Z,78.35
2017-08-19T23:14:57.673Z,78.47
2017-08-19T23:17:25.277Z,78.36
2017-08-19T23:19:52.929Z,78.43
2017-08-19T23:22:20.610Z,78.56
2017-08-19T23:24:48.214Z,78.60
2017-08-19T23:27:16.815Z,78.64
2017-08-19T23:29:44.704Z,78.58
2017-08-19T23:32:12.331Z,78.93
2017-08-19T23:34:39.961Z,78.73
2017-08-19T23:37:07.646Z,78.91
2017-08-19T23:39:35.276Z,79.46
2017-08-19T23:42:02.899Z,78.99
2017-08-19T23:44:30.600Z,78.47
2017-08-19T23:46:58.472Z,77.78
2017-08-19T23:49:26.121Z,77.95
2017-08-19T23:51:53.812Z,76.69
2017-08-19T23:54:21.469Z,76.50
2017-08-19T23:56:49.122Z,76.56
2017-08-19T23:59:16.800Z,75.44
